createdAt,value
2018-12-22T00:01:58.218Z,0.30
2018-12-22T00:04:25.651Z,0.40
2018-12-22T00:06:53.216Z,0.30
2018-12-22T00:09:20.648Z,0.40
2018-12-22T00:11:48.100Z,0.40
2018-12-22T00:14:15.544Z,0.30
2018-12-22T00:16:42.988Z,0.40
2018-12-22T00:19:10.434Z,0.30
2018-12-22T00:21:37.880Z,0.40
2018-12-22T00:24:05.321Z,0.77
2018-12-22T00:26:32.776Z,2.10
2018-12-22T00:29:00.269Z,0.50
2018-12-22T00:31:27.712Z,0.40
2018-12-22T00:33:55.158Z,0.40
2018-12-22T00:36:22.604Z,0.40
2018-12-22T00:38:50.049Z,1.67
2018-12-22T00:41:17.510Z,0.60
2018-12-22T00:43:44.957Z,0.40
2018-12-22T00:46:12.408Z,0.40
2018-12-22T00:48:39.868Z,0.60
2018-12-22T00:51:07.316Z,0.40
2018-12-22T00:53:34.752Z,0.40
2018-12-22T00:56:02.197Z,2.20
2018-12-22T00:58:30.827Z,0.63
2018-12-22T01:00:58.685Z,0.40
2018-12-22T01:03:26.131Z,1.17
2018-12-22T01:05:53.585Z,0.43
2018-12-22T01:08:21.020Z,2.40
2018-12-22T01:10:48.515Z,0.40
2018-12-22T01:13:15.961Z,0.60
2018-12-22T01:15:43.406Z,0.50
2018-12-22T01:18:10.856Z,0.50
2018-12-22T01:20:38.301Z,0.40
2018-12-22T01:23:05.753Z,0.40
2018-12-22T01:25:33.188Z,0.40
2018-12-22T01:28:00.641Z,0.40
2018-12-22T01:30:28.088Z,0.50
2018-12-22T01:32:55.547Z,0.40
2018-12-22T01:35:23.035Z,0.40
2018-12-22T01:37:50.485Z,0.40
2018-12-22T01:40:17.929Z,0.30
2018-12-22T01:42:45.372Z,1.17
2018-12-22T01:45:12.829Z,0.43
2018-12-22T01:47:40.280Z,2.00
2018-12-22T01:50:07.768Z,0.40
2018-12-22T01:52:35.222Z,0.40
2018-12-22T01:55:03.142Z,0.40
2018-12-22T01:57:30.590Z,0.40
2018-12-22T01:59:58.021Z,0.63
2018-12-22T02:02:25.469Z,0.40
2018-12-22T02:04:52.914Z,0.50
2018-12-22T02:07:20.362Z,0.43
2018-12-22T02:09:47.800Z,0.40
2018-12-22T02:12:15.252Z,0.67
2018-12-22T02:14:42.692Z,0.40
2018-12-22T02:17:10.138Z,0.40
2018-12-22T02:19:37.576Z,0.57
2018-12-22T02:22:05.078Z,0.40
2018-12-22T02:24:32.568Z,0.40
2018-12-22T02:27:00.020Z,0.60
2018-12-22T02:29:27.457Z,1.37
2018-12-22T02:31:54.951Z,0.70
2018-12-22T02:34:22.393Z,0.47
2018-12-22T02:36:49.848Z,0.50
2018-12-22T02:39:17.290Z,0.50
2018-12-22T02:41:44.765Z,0.50
2018-12-22T02:44:12.274Z,0.40
2018-12-22T02:46:39.732Z,0.40
2018-12-22T02:49:07.165Z,0.40
2018-12-22T02:51:34.619Z,0.50
2018-12-22T02:54:02.061Z,0.40
2018-12-22T02:56:29.511Z,0.63
2018-12-22T02:59:05.660Z,0.40
2018-12-22T03:01:26.395Z,0.40
2018-12-22T03:03:53.838Z,0.50
2018-12-22T03:06:21.314Z,1.23
2018-12-22T03:08:48.761Z,0.50
2018-12-22T03:11:16.194Z,0.70
2018-12-22T03:13:43.680Z,0.93
2018-12-22T03:16:11.120Z,1.43
2018-12-22T03:18:38.572Z,0.40
2018-12-22T03:21:06.026Z,0.53
2018-12-22T03:23:33.472Z,0.40
2018-12-22T03:26:00.914Z,0.50
2018-12-22T03:28:28.368Z,0.70
2018-12-22T03:30:55.806Z,0.57
2018-12-22T03:33:23.260Z,0.40
2018-12-22T03:35:50.712Z,0.40
2018-12-22T03:38:18.164Z,0.50
2018-12-22T03:40:45.604Z,0.40
2018-12-22T03:43:13.053Z,0.50
2018-12-22T03:45:40.494Z,0.50
2018-12-22T03:48:07.942Z,0.50
2018-12-22T03:50:35.386Z,0.40
2018-12-22T03:53:02.879Z,1.93
2018-12-22T03:55:30.352Z,0.40
2018-12-22T03:57:57.810Z,0.50
2018-12-22T04:00:25.288Z,0.50
2018-12-22T04:02:52.738Z,0.50
2018-12-22T04:05:20.187Z,0.93
2018-12-22T04:07:47.630Z,0.50
2018-12-22T04:10:15.130Z,0.60
2018-12-22T04:12:42.585Z,0.50
2018-12-22T04:15:10.064Z,0.40
2018-12-22T04:17:37.512Z,0.50
2018-12-22T04:20:05.993Z,0.33
2018-12-22T04:22:33.481Z,1.07
2018-12-22T04:25:00.931Z,0.40
2018-12-22T04:27:28.388Z,0.40
2018-12-22T04:29:55.844Z,0.40
2018-12-22T04:32:23.376Z,0.40
2018-12-22T04:34:50.820Z,0.40
2018-12-22T04:37:18.275Z,0.40
2018-12-22T04:39:45.770Z,0.30
2018-12-22T04:42:13.218Z,0.30
2018-12-22T04:44:40.659Z,0.40
2018-12-22T04:47:08.184Z,0.70
2018-12-22T04:49:35.632Z,2.70
2018-12-22T04:52:03.069Z,0.40
2018-12-22T04:54:30.520Z,0.53
2018-12-22T04:56:57.956Z,0.53
2018-12-22T04:59:25.410Z,1.03
2018-12-22T05:01:52.897Z,0.40
2018-12-22T05:04:20.528Z,0.37
2018-12-22T05:06:48.059Z,1.27
2018-12-22T05:09:15.508Z,0.30
2018-12-22T05:11:42.941Z,0.60
2018-12-22T05:14:10.388Z,1.60
2018-12-22T05:16:37.834Z,0.30
2018-12-22T05:19:05.281Z,0.40
2018-12-22T05:21:32.763Z,0.30
2018-12-22T05:24:00.209Z,0.30
2018-12-22T05:26:27.648Z,0.70
2018-12-22T05:28:55.104Z,0.37
2018-12-22T05:31:22.543Z,0.80
2018-12-22T05:33:49.996Z,0.30
2018-12-22T05:36:17.444Z,0.50
2018-12-22T05:38:44.980Z,0.30
2018-12-22T05:41:12.425Z,0.50
2018-12-22T05:43:39.864Z,0.30
2018-12-22T05:46:07.311Z,0.50
2018-12-22T05:48:34.762Z,0.30
2018-12-22T05:51:02.253Z,0.40
2018-12-22T05:53:29.697Z,0.40
2018-12-22T05:55:57.136Z,3.03
2018-12-22T05:58:24.576Z,0.40
2018-12-22T06:00:52.026Z,0.83
2018-12-22T06:03:19.544Z,1.13
2018-12-22T06:05:47.026Z,0.40
2018-12-22T06:08:14.480Z,0.40
2018-12-22T06:10:41.915Z,0.40
2018-12-22T06:13:09.364Z,0.60
2018-12-22T06:15:36.813Z,0.30
2018-12-22T06:18:04.253Z,0.60
2018-12-22T06:20:31.705Z,3.17
2018-12-22T06:22:59.156Z,0.53
2018-12-22T06:25:26.600Z,0.40
2018-12-22T06:27:54.074Z,0.40
2018-12-22T06:30:21.512Z,1.07
2018-12-22T06:32:48.961Z,1.33
2018-12-22T06:35:16.418Z,0.30
2018-12-22T06:37:43.861Z,0.73
2018-12-22T06:40:11.357Z,0.40
2018-12-22T06:42:38.850Z,0.33
2018-12-22T06:45:06.396Z,0.40
2018-12-22T06:47:33.824Z,0.30
2018-12-22T06:50:01.273Z,0.70
2018-12-22T06:52:28.717Z,0.63
2018-12-22T06:54:56.173Z,0.30
2018-12-22T06:57:23.620Z,0.30
2018-12-22T06:59:52.054Z,0.30
2018-12-22T07:02:19.649Z,0.30
2018-12-22T07:04:47.104Z,0.40
2018-12-22T07:07:14.541Z,0.30
2018-12-22T07:09:41.988Z,0.50
2018-12-22T07:12:09.434Z,0.30
2018-12-22T07:14:36.885Z,0.30
2018-12-22T07:17:04.331Z,0.30
2018-12-22T07:19:31.782Z,0.87
2018-12-22T07:21:59.224Z,1.20
2018-12-22T07:24:26.668Z,0.40
2018-12-22T07:26:54.114Z,0.40
2018-12-22T07:29:21.565Z,0.30
2018-12-22T07:31:49.050Z,0.50
2018-12-22T07:34:16.552Z,0.40
2018-12-22T07:36:44.069Z,0.40
2018-12-22T07:39:11.520Z,0.60
2018-12-22T07:41:38.965Z,2.20
2018-12-22T07:44:06.403Z,0.30
2018-12-22T07:46:33.849Z,0.40
2018-12-22T07:49:01.297Z,1.17
2018-12-22T07:51:28.755Z,0.60
2018-12-22T07:53:56.205Z,0.30
2018-12-22T07:56:23.648Z,0.40
2018-12-22T07:58:51.100Z,1.03
2018-12-22T08:01:19.907Z,0.33
2018-12-22T08:03:47.489Z,0.40
2018-12-22T08:06:15.310Z,1.63
2018-12-22T08:08:42.753Z,0.83
2018-12-22T08:11:10.199Z,0.40
2018-12-22T08:13:37.644Z,0.40
2018-12-22T08:16:05.097Z,0.93
2018-12-22T08:18:32.549Z,0.40
2018-12-22T08:21:00.001Z,0.40
2018-12-22T08:23:27.441Z,0.40
2018-12-22T08:25:54.893Z,0.40
2018-12-22T08:28:22.331Z,0.40
2018-12-22T08:30:49.816Z,0.40
2018-12-22T08:33:17.265Z,0.40
2018-12-22T08:35:44.713Z,1.80
2018-12-22T08:38:12.166Z,0.80
2018-12-22T08:40:39.612Z,0.77
2018-12-22T08:43:07.088Z,0.40
2018-12-22T08:45:34.589Z,0.37
2018-12-22T08:48:03.526Z,0.37
2018-12-22T08:50:31.005Z,0.90
2018-12-22T08:52:58.449Z,0.40
2018-12-22T08:55:25.905Z,0.67
2018-12-22T08:57:53.353Z,0.40
2018-12-22T09:00:20.870Z,0.40
2018-12-22T09:02:48.309Z,0.77
2018-12-22T09:05:15.761Z,0.40
2018-12-22T09:07:43.201Z,1.80
2018-12-22T09:10:10.662Z,0.40
2018-12-22T09:12:38.105Z,1.90
2018-12-22T09:15:07.839Z,0.40
2018-12-22T09:17:35.284Z,0.40
2018-12-22T09:20:03.319Z,0.30
2018-12-22T09:22:30.771Z,1.43
2018-12-22T09:24:58.239Z,0.40
2018-12-22T09:27:25.850Z,0.40
2018-12-22T09:29:53.303Z,1.27
2018-12-22T09:32:20.782Z,0.80
2018-12-22T09:34:48.342Z,0.40
2018-12-22T09:37:15.818Z,0.50
2018-12-22T09:39:43.264Z,0.40
2018-12-22T09:42:10.713Z,1.27
2018-12-22T09:44:38.182Z,1.03
2018-12-22T09:47:05.636Z,1.13
2018-12-22T09:49:33.090Z,2.10
2018-12-22T09:52:00.581Z,1.13
2018-12-22T09:54:28.051Z,3.70
2018-12-22T09:56:55.499Z,1.10
2018-12-22T09:59:22.954Z,2.23
2018-12-22T10:01:51.362Z,1.33
2018-12-22T10:04:18.798Z,0.40
2018-12-22T10:06:46.250Z,1.90
2018-12-22T10:09:13.699Z,0.60
2018-12-22T10:11:41.229Z,0.83
2018-12-22T10:14:08.673Z,4.03
2018-12-22T10:16:36.177Z,0.50
2018-12-22T10:19:03.706Z,0.50
2018-12-22T10:21:31.162Z,1.37
2018-12-22T10:23:58.702Z,0.40
2018-12-22T10:26:26.762Z,0.50
2018-12-22T10:28:54.249Z,1.00
2018-12-22T10:31:21.738Z,0.53
2018-12-22T10:33:49.194Z,0.80
2018-12-22T10:36:16.648Z,0.40
2018-12-22T10:38:44.270Z,0.70
2018-12-22T10:41:11.753Z,0.50
2018-12-22T10:43:39.228Z,0.40
2018-12-22T10:46:06.716Z,0.60
2018-12-22T10:48:34.163Z,0.40
2018-12-22T10:51:01.686Z,0.90
2018-12-22T10:53:29.126Z,0.70
2018-12-22T10:55:56.587Z,1.40
2018-12-22T10:58:24.034Z,1.33
2018-12-22T11:00:51.496Z,1.70
2018-12-22T11:03:18.941Z,0.50
2018-12-22T11:05:46.405Z,0.50
2018-12-22T11:08:13.846Z,0.90
2018-12-22T11:10:41.342Z,0.70
2018-12-22T11:13:08.795Z,4.03
2018-12-22T11:15:36.246Z,0.70
2018-12-22T11:18:03.830Z,2.87
2018-12-22T11:20:31.412Z,1.37
2018-12-22T11:22:58.842Z,1.03
2018-12-22T11:25:26.380Z,0.60
2018-12-22T11:27:53.861Z,0.73
2018-12-22T11:30:23.459Z,0.77
2018-12-22T11:32:50.909Z,0.80
2018-12-22T11:35:18.366Z,1.43
2018-12-22T11:37:45.871Z,2.20
2018-12-22T11:40:13.418Z,3.17
2018-12-22T11:42:47.602Z,0.50
2018-12-22T11:45:10.677Z,0.60
2018-12-22T11:47:41.103Z,0.40
2018-12-22T11:50:13.193Z,0.53
2018-12-22T11:52:41.363Z,3.40
2018-12-22T11:55:08.850Z,1.10
2018-12-22T11:57:36.304Z,1.00
2018-12-22T12:00:05.683Z,1.63
2018-12-22T12:02:33.125Z,0.50
2018-12-22T12:05:00.585Z,1.33
2018-12-22T12:07:28.050Z,1.17
2018-12-22T12:09:55.490Z,2.67
2018-12-22T12:12:22.945Z,2.60
2018-12-22T12:14:50.385Z,2.53
2018-12-22T12:17:21.468Z,5.30
2018-12-22T12:19:48.896Z,3.60
2018-12-22T12:22:16.340Z,3.13
2018-12-22T12:24:43.816Z,2.93
2018-12-22T12:27:11.270Z,4.67
2018-12-22T12:29:38.759Z,2.30
2018-12-22T12:32:06.265Z,1.60
2018-12-22T12:34:33.792Z,0.50
2018-12-22T12:37:01.829Z,0.70
2018-12-22T12:39:29.271Z,3.33
2018-12-22T12:41:56.927Z,1.10
2018-12-22T12:44:24.372Z,1.50
2018-12-22T12:46:51.898Z,1.07
2018-12-22T12:49:19.346Z,1.17
2018-12-22T12:51:46.839Z,1.13
2018-12-22T12:54:14.410Z,1.30
2018-12-22T12:56:42.010Z,4.97
2018-12-22T12:59:09.460Z,4.40
2018-12-22T13:01:36.901Z,3.13
2018-12-22T13:04:04.349Z,2.40
2018-12-22T13:06:31.998Z,3.27
2018-12-22T13:09:00.338Z,4.03
2018-12-22T13:11:27.930Z,1.33
2018-12-22T13:13:55.407Z,1.97
2018-12-22T13:16:22.860Z,3.90
2018-12-22T13:18:50.300Z,9.00
2018-12-22T13:21:17.824Z,1.80
2018-12-22T13:23:45.288Z,4.13
2018-12-22T13:26:12.797Z,2.97
2018-12-22T13:28:40.459Z,4.47
2018-12-22T13:31:08.200Z,1.73
2018-12-22T13:33:36.245Z,6.80
2018-12-22T13:36:03.805Z,3.40
2018-12-22T13:38:33.273Z,3.83
2018-12-22T13:41:00.737Z,0.90
2018-12-22T13:43:28.227Z,4.70
2018-12-22T13:45:55.670Z,8.37
2018-12-22T13:48:23.408Z,6.33
2018-12-22T13:50:51.136Z,3.47
2018-12-22T13:53:18.636Z,2.40
2018-12-22T13:55:46.123Z,2.67
2018-12-22T13:58:13.574Z,2.37
2018-12-22T14:00:41.024Z,1.43
2018-12-22T14:03:09.549Z,4.30
2018-12-22T14:05:36.996Z,4.73
2018-12-22T14:08:04.466Z,1.37
2018-12-22T14:10:31.950Z,5.20
2018-12-22T14:12:59.402Z,3.07
2018-12-22T14:15:26.840Z,1.87
2018-12-22T14:18:01.842Z,3.83
2018-12-22T14:20:30.662Z,3.33
2018-12-22T14:22:58.113Z,1.90
2018-12-22T14:25:25.597Z,2.30
2018-12-22T14:27:53.049Z,2.87
2018-12-22T14:30:20.505Z,4.17
2018-12-22T14:32:48.014Z,2.10
2018-12-22T14:35:18.932Z,4.37
2018-12-22T14:37:46.474Z,1.67
2018-12-22T14:40:13.970Z,2.30
2018-12-22T14:42:41.426Z,6.13
2018-12-22T14:45:12.638Z,4.67
2018-12-22T14:47:40.365Z,3.53
2018-12-22T14:50:11.498Z,4.70
2018-12-22T14:52:38.992Z,3.93
2018-12-22T14:55:12.359Z,1.53
2018-12-22T14:57:46.053Z,2.23
2018-12-22T15:00:15.787Z,2.00
2018-12-22T15:02:43.290Z,4.30
2018-12-22T15:05:10.831Z,2.10
2018-12-22T15:07:38.321Z,1.10
2018-12-22T15:10:08.685Z,3.33
2018-12-22T15:12:36.129Z,1.57
2018-12-22T15:15:09.664Z,2.13
2018-12-22T15:17:38.953Z,4.57
2018-12-22T15:20:13.688Z,4.17
2018-12-22T15:22:41.142Z,6.73
2018-12-22T15:25:09.065Z,1.57
2018-12-22T15:27:36.561Z,3.13
2018-12-22T15:30:08.861Z,1.13
2018-12-22T15:32:43.926Z,1.17
2018-12-22T15:35:07.473Z,3.33
2018-12-22T15:37:34.966Z,4.40
2018-12-22T15:40:03.790Z,1.10
2018-12-22T15:42:31.246Z,4.53
2018-12-22T15:44:58.698Z,2.97
2018-12-22T15:47:26.176Z,3.43
2018-12-22T15:49:53.618Z,4.63
2018-12-22T15:52:22.083Z,2.70
2018-12-22T15:54:49.526Z,2.30
2018-12-22T15:57:16.968Z,5.00
2018-12-22T15:59:44.517Z,3.63
2018-12-22T16:02:11.967Z,4.30
2018-12-22T16:04:39.427Z,2.40
2018-12-22T16:07:06.857Z,3.77
2018-12-22T16:09:34.310Z,1.80
2018-12-22T16:12:01.758Z,1.43
2018-12-22T16:14:29.312Z,2.23
2018-12-22T16:16:56.837Z,4.90
2018-12-22T16:19:24.332Z,3.43
2018-12-22T16:21:51.781Z,2.07
2018-12-22T16:24:19.227Z,6.53
2018-12-22T16:26:46.738Z,1.60
2018-12-22T16:29:14.246Z,4.57
2018-12-22T16:31:41.805Z,1.70
2018-12-22T16:34:09.294Z,5.83
2018-12-22T16:36:36.781Z,3.37
2018-12-22T16:39:06.110Z,4.23
2018-12-22T16:41:33.562Z,5.90
2018-12-22T16:44:01.064Z,4.10
2018-12-22T16:46:28.559Z,8.57
2018-12-22T16:48:55.998Z,9.33
2018-12-22T16:51:23.505Z,6.73
2018-12-22T16:53:50.949Z,1.90
2018-12-22T16:56:18.398Z,5.53
2018-12-22T16:58:46.046Z,6.13
2018-12-22T17:01:25.255Z,4.00
2018-12-22T17:03:52.709Z,4.63
2018-12-22T17:06:20.194Z,5.90
2018-12-22T17:08:47.648Z,4.30
2018-12-22T17:11:15.101Z,4.77
2018-12-22T17:13:42.703Z,4.03
2018-12-22T17:16:10.286Z,3.20
2018-12-22T17:18:37.762Z,3.17
2018-12-22T17:21:09.760Z,5.57
2018-12-22T17:23:42.917Z,2.23
2018-12-22T17:26:10.356Z,1.47
2018-12-22T17:28:37.821Z,1.43
2018-12-22T17:31:05.326Z,0.93
2018-12-22T17:33:32.782Z,2.93
2018-12-22T17:36:00.292Z,9.70
2018-12-22T17:38:27.822Z,8.00
2018-12-22T17:40:55.357Z,1.00
2018-12-22T17:43:22.843Z,2.20
2018-12-22T17:45:50.300Z,3.10
2018-12-22T17:48:17.774Z,3.07
2018-12-22T17:50:45.236Z,2.77
2018-12-22T17:53:12.686Z,3.20
2018-12-22T17:55:40.147Z,5.63
2018-12-22T17:58:07.599Z,5.93
2018-12-22T18:00:35.054Z,4.00
2018-12-22T18:03:02.593Z,2.50
2018-12-22T18:05:30.030Z,6.30
2018-12-22T18:07:57.518Z,2.50
2018-12-22T18:10:25.057Z,5.87
2018-12-22T18:12:52.502Z,4.80
2018-12-22T18:15:23.479Z,5.27
2018-12-22T18:17:50.928Z,5.20
2018-12-22T18:20:18.457Z,8.93
2018-12-22T18:22:46.090Z,13.13
2018-12-22T18:25:16.553Z,7.70
2018-12-22T18:27:44.102Z,13.33
2018-12-22T18:30:12.264Z,2.87
2018-12-22T18:32:40.724Z,2.37
2018-12-22T18:35:10.273Z,3.80
2018-12-22T18:37:38.371Z,3.30
2018-12-22T18:40:15.302Z,0.80
2018-12-22T18:42:44.225Z,2.93
2018-12-22T18:45:12.352Z,1.80
2018-12-22T18:47:40.094Z,6.03
2018-12-22T18:50:12.691Z,4.23
2018-12-22T18:52:40.204Z,3.17
2018-12-22T18:55:08.984Z,0.77
2018-12-22T18:57:36.811Z,6.63
2018-12-22T19:00:16.335Z,3.13
2018-12-22T19:02:43.910Z,12.17
2018-12-22T19:05:11.947Z,3.83
2018-12-22T19:07:40.509Z,3.80
2018-12-22T19:10:20.580Z,8.20
2018-12-22T19:12:48.161Z,12.43
2018-12-22T19:15:15.640Z,4.30
2018-12-22T19:17:43.207Z,10.63
2018-12-22T19:20:18.697Z,10.50
2018-12-22T19:22:46.155Z,4.03
2018-12-22T19:25:13.606Z,8.07
2018-12-22T19:27:41.072Z,16.40
2018-12-22T19:30:08.810Z,13.13
2018-12-22T19:32:36.300Z,2.07
2018-12-22T19:35:04.628Z,5.50
2018-12-22T19:37:32.090Z,6.03
2018-12-22T19:39:59.550Z,10.57
2018-12-22T19:42:27.006Z,4.50
2018-12-22T19:44:54.456Z,14.57
2018-12-22T19:47:21.922Z,10.63
2018-12-22T19:49:49.375Z,10.80
2018-12-22T19:52:16.829Z,7.90
2018-12-22T19:54:44.284Z,2.97
2018-12-22T19:57:11.746Z,7.30
2018-12-22T19:59:39.199Z,9.23
2018-12-22T20:02:06.660Z,5.77
2018-12-22T20:04:34.145Z,5.13
2018-12-22T20:07:01.601Z,10.70
2018-12-22T20:09:29.050Z,6.13
2018-12-22T20:11:56.562Z,19.60
2018-12-22T20:14:24.007Z,14.40
2018-12-22T20:16:51.462Z,5.83
2018-12-22T20:19:18.905Z,11.07
2018-12-22T20:21:46.355Z,14.93
2018-12-22T20:24:13.802Z,17.00
2018-12-22T20:26:41.283Z,19.33
2018-12-22T20:29:08.840Z,8.87
2018-12-22T20:31:36.349Z,6.80
2018-12-22T20:34:11.009Z,5.33
2018-12-22T20:36:33.262Z,2.00
2018-12-22T20:39:00.709Z,5.67
2018-12-22T20:41:28.158Z,13.20
2018-12-22T20:43:55.609Z,5.83
2018-12-22T20:46:23.054Z,9.70
2018-12-22T20:48:50.504Z,9.30
2018-12-22T20:51:18.001Z,2.83
2018-12-22T20:53:45.455Z,2.30
2018-12-22T20:56:12.904Z,4.53
2018-12-22T20:58:40.347Z,4.83
2018-12-22T21:01:07.797Z,4.27
2018-12-22T21:03:38.757Z,6.60
2018-12-22T21:06:10.073Z,5.80
2018-12-22T21:08:37.530Z,7.70
2018-12-22T21:11:04.966Z,6.27
2018-12-22T21:13:32.422Z,5.73
2018-12-22T21:15:59.866Z,12.77
2018-12-22T21:18:27.316Z,3.97
2018-12-22T21:20:54.761Z,2.40
2018-12-22T21:23:22.210Z,2.07
2018-12-22T21:25:49.650Z,6.73
2018-12-22T21:28:17.096Z,4.93
2018-12-22T21:30:44.542Z,5.87
2018-12-22T21:33:11.989Z,10.60
2018-12-22T21:35:39.432Z,4.93
2018-12-22T21:38:06.891Z,2.30
2018-12-22T21:40:34.334Z,4.87
2018-12-22T21:43:01.789Z,3.80
2018-12-22T21:45:29.234Z,7.20
2018-12-22T21:47:56.689Z,14.53
2018-12-22T21:50:24.138Z,4.40
2018-12-22T21:52:51.582Z,9.63
2018-12-22T21:55:19.060Z,7.30
2018-12-22T21:57:46.504Z,2.00
2018-12-22T22:00:14.033Z,3.70
2018-12-22T22:02:41.501Z,8.50
2018-12-22T22:05:08.936Z,5.23
2018-12-22T22:07:36.381Z,2.20
2018-12-22T22:10:04.610Z,3.90
2018-12-22T22:12:32.088Z,5.07
2018-12-22T22:14:59.545Z,3.07
2018-12-22T22:17:26.992Z,13.47
2018-12-22T22:19:54.444Z,5.67
2018-12-22T22:22:21.921Z,4.93
2018-12-22T22:24:49.456Z,2.10
2018-12-22T22:27:16.895Z,5.30
2018-12-22T22:29:44.488Z,4.20
2018-12-22T22:32:11.933Z,7.33
2018-12-22T22:34:45.536Z,5.90
2018-12-22T22:37:08.817Z,4.37
2018-12-22T22:39:36.265Z,11.40
2018-12-22T22:42:03.880Z,3.80
2018-12-22T22:44:31.320Z,7.00
2018-12-22T22:46:58.764Z,9.87
2018-12-22T22:49:26.215Z,3.60
2018-12-22T22:51:53.781Z,5.63
2018-12-22T22:54:21.319Z,1.57
2018-12-22T22:56:48.749Z,6.47
2018-12-22T22:59:16.233Z,2.97
2018-12-22T23:01:43.779Z,4.47
2018-12-22T23:04:11.252Z,4.73
2018-12-22T23:06:38.712Z,7.57
2018-12-22T23:09:06.360Z,4.70
2018-12-22T23:11:33.829Z,4.00
2018-12-22T23:14:01.282Z,6.80
2018-12-22T23:16:28.720Z,4.80
2018-12-22T23:18:56.172Z,4.17
2018-12-22T23:21:23.654Z,1.50
2018-12-22T23:23:51.102Z,5.77
2018-12-22T23:26:18.536Z,4.80
2018-12-22T23:28:45.997Z,2.10
2018-12-22T23:31:13.449Z,3.60
2018-12-22T23:33:40.906Z,4.70
2018-12-22T23:36:08.340Z,4.30
2018-12-22T23:38:35.780Z,3.20
2018-12-22T23:41:03.226Z,2.30
2018-12-22T23:43:30.678Z,3.90
2018-12-22T23:45:58.158Z,4.43
2018-12-22T23:48:25.802Z,0.77
2018-12-22T23:50:53.242Z,10.23
2018-12-22T23:53:20.676Z,5.40
2018-12-22T23:55:48.129Z,3.80
2018-12-22T23:58:15.573Z,7.10
